Time;durP1;ratioP1;P1;durP2;ratioP2;P2;SDS_P1;SDS_P2;PMS_P1;PMS_P2;Temp;Humidity;BMP_temperature;BMP_pressure;BME280_temperature;BME280_humidity;BME280_pressure;Samples;Min_cycle;Max_cycle;Signal;HPM_P1;HPM_P2
2020/12/10 00:00:38;;;;;;;8.90;5.83;;;2.10;99.90;;;;;;5041393;28;20482;-51
2020/12/10 00:03:05;;;;;;;9.80;6.70;;;2.10;99.90;;;;;;5057127;28;20962;-51
2020/12/10 00:05:31;;;;;;;10.40;6.27;;;2.00;99.90;;;;;;5070701;28;20453;-51
2020/12/10 00:07:58;;;;;;;12.80;6.60;;;2.10;99.90;;;;;;5056606;28;20443;-52
2020/12/10 00:10:25;;;;;;;9.50;6.30;;;2.20;99.90;;;;;;5049878;28;20479;-52
2020/12/10 00:12:51;;;;;;;11.00;6.40;;;2.00;99.90;;;;;;5050812;28;20490;-52
2020/12/10 00:15:19;;;;;;;11.40;6.90;;;1.90;99.90;;;;;;5050516;28;20454;-52
2020/12/10 00:17:45;;;;;;;9.60;6.07;;;1.90;99.90;;;;;;5050459;28;20452;-52
2020/12/10 00:20:11;;;;;;;9.70;6.03;;;2.10;99.90;;;;;;5050027;28;20482;-52
2020/12/10 00:22:39;;;;;;;10.03;5.97;;;2.20;99.90;;;;;;5050451;28;20960;-52
2020/12/10 00:25:06;;;;;;;9.23;6.03;;;2.30;99.90;;;;;;5050058;28;20531;-52
2020/12/10 00:27:34;;;;;;;10.50;5.80;;;2.40;99.90;;;;;;5050451;28;20451;-52
2020/12/10 00:30:02;;;;;;;10.13;6.70;;;2.30;99.90;;;;;;5049980;28;20613;-52
2020/12/10 00:32:30;;;;;;;8.50;5.63;;;2.30;99.90;;;;;;5050331;28;20490;-53
2020/12/10 00:34:56;;;;;;;9.30;6.20;;;2.40;99.90;;;;;;5050014;28;20493;-52
2020/12/10 00:37:24;;;;;;;5.90;5.07;;;2.40;99.90;;;;;;5049884;28;20447;-52
2020/12/10 00:39:50;;;;;;;12.17;6.43;;;2.50;99.90;;;;;;5050176;28;20539;-52
2020/12/10 00:42:17;;;;;;;10.13;6.80;;;2.50;99.90;;;;;;5049699;28;20864;-53
2020/12/10 00:44:44;;;;;;;9.37;5.80;;;2.50;99.90;;;;;;5049518;28;20991;-53
2020/12/10 00:47:11;;;;;;;9.40;6.30;;;2.50;99.90;;;;;;5050125;28;20517;-52
2020/12/10 00:49:38;;;;;;;9.80;6.20;;;2.40;99.90;;;;;;5066162;28;20455;-52
2020/12/10 00:52:04;;;;;;;9.63;6.10;;;2.40;99.90;;;;;;5049001;28;20451;-52
2020/12/10 00:54:31;;;;;;;10.03;6.30;;;2.40;99.90;;;;;;5049742;28;20452;-52
2020/12/10 00:56:57;;;;;;;10.30;6.50;;;2.40;99.90;;;;;;5049874;28;20453;-52
2020/12/10 00:59:24;;;;;;;14.20;6.83;;;2.40;99.90;;;;;;5049504;28;20457;-52
2020/12/10 01:01:51;;;;;;;10.60;7.00;;;2.40;99.90;;;;;;5045750;28;20467;-53
2020/12/10 01:04:17;;;;;;;11.70;7.47;;;2.20;99.90;;;;;;5049680;28;20845;-52
2020/12/10 01:06:45;;;;;;;10.40;7.03;;;2.20;99.90;;;;;;5049883;28;20455;-52
2020/12/10 01:09:11;;;;;;;14.50;6.80;;;2.20;99.90;;;;;;5049650;28;20456;-52
2020/12/10 01:11:38;;;;;;;13.97;7.67;;;2.30;99.90;;;;;;5049182;28;20482;-52
2020/12/10 01:14:06;;;;;;;8.93;6.30;;;2.30;99.90;;;;;;5049932;28;20502;-52
2020/12/10 01:16:33;;;;;;;11.93;7.70;;;2.30;99.90;;;;;;5050093;28;20456;-52
2020/12/10 01:19:02;;;;;;;12.40;7.90;;;2.30;99.90;;;;;;5049306;28;20459;-51
2020/12/10 01:21:30;;;;;;;14.10;8.67;;;2.40;99.90;;;;;;5049684;28;20478;-52
2020/12/10 01:23:59;;;;;;;12.70;7.60;;;2.40;99.90;;;;;;5059769;28;20474;-51
2020/12/10 01:26:28;;;;;;;13.73;8.20;;;2.40;99.90;;;;;;5069551;28;20451;-51
2020/12/10 01:28:54;;;;;;;15.80;8.40;;;2.30;99.90;;;;;;5069631;28;20442;-51
2020/12/10 01:31:21;;;;;;;14.87;7.80;;;2.20;99.90;;;;;;5053477;28;20480;-52
2020/12/10 01:33:47;;;;;;;14.20;7.83;;;2.30;99.90;;;;;;5051141;28;20557;-51
2020/12/10 01:36:21;;;;;;;12.03;7.20;;;2.30;99.90;;;;;;5049707;28;20436;-52
2020/12/10 01:38:48;;;;;;;11.47;7.83;;;2.30;99.90;;;;;;5053577;28;20470;-52
2020/12/10 01:41:16;;;;;;;11.00;7.17;;;2.30;99.90;;;;;;5049757;28;20475;-52
2020/12/10 01:43:42;;;;;;;11.37;7.13;;;2.30;99.90;;;;;;5049689;28;20452;-52
2020/12/10 01:46:09;;;;;;;11.97;7.10;;;2.30;99.90;;;;;;5049843;28;20454;-51
2020/12/10 01:48:37;;;;;;;12.53;8.17;;;2.30;99.90;;;;;;5051304;28;20454;-51
2020/12/10 01:51:04;;;;;;;12.20;7.00;;;2.20;99.90;;;;;;5053382;28;20503;-51
2020/12/10 01:53:31;;;;;;;13.93;7.47;;;2.20;99.90;;;;;;5118391;22;20502;-48
2020/12/10 01:55:58;;;;;;;15.67;7.60;;;2.20;99.90;;;;;;5073375;28;20451;-47
2020/12/10 01:58:25;;;;;;;11.50;6.87;;;2.20;99.90;;;;;;5072537;28;20828;-47
2020/12/10 02:00:52;;;;;;;11.00;6.47;;;2.20;99.90;;;;;;5072822;28;20434;-48
2020/12/10 02:03:19;;;;;;;10.00;6.97;;;2.30;99.90;;;;;;5071255;28;20462;-48
2020/12/10 02:05:46;;;;;;;11.10;6.80;;;2.20;99.90;;;;;;5073145;28;20447;-47
2020/12/10 02:08:13;;;;;;;11.60;7.30;;;2.30;99.90;;;;;;5072748;28;20451;-47
2020/12/10 02:10:39;;;;;;;10.90;6.73;;;2.30;99.90;;;;;;5073154;28;20449;-48
2020/12/10 02:13:06;;;;;;;14.40;7.83;;;2.30;99.90;;;;;;5073011;28;20875;-48
2020/12/10 02:15:34;;;;;;;13.97;8.03;;;2.30;99.90;;;;;;5072856;28;20451;-47
2020/12/10 02:18:02;;;;;;;14.80;8.57;;;2.30;99.90;;;;;;5072315;28;20485;-47
2020/12/10 02:20:29;;;;;;;15.13;8.03;;;2.20;99.90;;;;;;5059697;28;20471;-47
2020/12/10 02:23:04;;;;;;;12.37;7.30;;;2.10;99.90;;;;;;5061922;28;20463;-48
2020/12/10 02:25:31;;;;;;;11.93;7.23;;;2.20;99.90;;;;;;5072693;28;20457;-48
2020/12/10 02:28:03;;;;;;;11.80;7.30;;;2.20;99.90;;;;;;5072447;28;20450;-48
2020/12/10 02:30:30;;;;;;;13.77;7.60;;;2.20;99.90;;;;;;5073111;28;20447;-48
2020/12/10 02:32:58;;;;;;;11.07;7.10;;;2.10;99.90;;;;;;5072989;28;20489;-48
2020/12/10 02:35:26;;;;;;;13.17;7.10;;;2.10;99.90;;;;;;5073056;28;20450;-48
2020/12/10 02:37:57;;;;;;;12.30;7.70;;;2.10;99.90;;;;;;5071477;28;20504;-48
2020/12/10 02:40:26;;;;;;;12.10;7.87;;;2.00;99.90;;;;;;5071957;28;20988;-48
2020/12/10 02:42:53;;;;;;;12.80;7.70;;;2.10;99.90;;;;;;5072866;28;20840;-48
2020/12/10 02:45:20;;;;;;;11.63;7.73;;;2.20;99.90;;;;;;5072593;28;20451;-48
2020/12/10 02:47:47;;;;;;;11.67;7.07;;;2.20;99.90;;;;;;5072391;28;20455;-48
2020/12/10 02:50:14;;;;;;;12.13;7.47;;;2.10;99.90;;;;;;5072379;28;20451;-48
2020/12/10 02:52:40;;;;;;;12.80;8.10;;;2.20;99.90;;;;;;5071968;28;21019;-48
2020/12/10 02:55:07;;;;;;;13.70;7.90;;;2.20;99.90;;;;;;5071984;28;20447;-47
2020/12/10 02:57:34;;;;;;;13.53;7.63;;;2.20;99.90;;;;;;5072594;28;20442;-48
2020/12/10 03:00:01;;;;;;;12.10;7.77;;;2.20;99.90;;;;;;5071987;28;20446;-48
2020/12/10 03:02:27;;;;;;;12.50;7.20;;;2.30;99.90;;;;;;5072292;28;20438;-48
2020/12/10 03:04:54;;;;;;;12.47;8.27;;;2.30;99.90;;;;;;5072126;28;20439;-48
2020/12/10 03:07:20;;;;;;;12.73;8.07;;;2.30;99.90;;;;;;5072241;28;20439;-48
2020/12/10 03:09:47;;;;;;;12.60;8.10;;;2.20;99.90;;;;;;5071677;28;20836;-48
2020/12/10 03:12:14;;;;;;;13.63;8.10;;;2.20;99.90;;;;;;5071942;28;20459;-48
2020/12/10 03:14:41;;;;;;;13.03;7.80;;;2.20;99.90;;;;;;5071978;28;20890;-48
2020/12/10 03:17:08;;;;;;;12.87;7.17;;;2.30;99.90;;;;;;5072458;28;20447;-48
2020/12/10 03:19:34;;;;;;;12.00;8.27;;;2.30;99.90;;;;;;5071914;28;20455;-48
2020/12/10 03:22:01;;;;;;;16.57;8.97;;;2.30;99.90;;;;;;5071795;28;20454;-48
2020/12/10 03:24:28;;;;;;;15.23;8.80;;;2.20;99.90;;;;;;5071242;28;20470;-49
2020/12/10 03:26:55;;;;;;;12.67;8.37;;;2.20;99.90;;;;;;5071909;28;20963;-48
2020/12/10 03:29:21;;;;;;;12.20;7.80;;;2.30;99.90;;;;;;5071212;28;20451;-48
2020/12/10 03:31:49;;;;;;;15.33;8.17;;;2.30;99.90;;;;;;5071774;28;20501;-48
2020/12/10 03:34:17;;;;;;;14.27;8.17;;;2.30;99.90;;;;;;5071139;28;20551;-48
2020/12/10 03:36:48;;;;;;;15.60;7.23;;;2.40;99.90;;;;;;5071431;28;20542;-48
2020/12/10 03:39:14;;;;;;;13.80;8.07;;;2.40;99.90;;;;;;5071250;28;20478;-48
2020/12/10 03:41:41;;;;;;;12.33;7.67;;;2.40;99.90;;;;;;5071795;28;20450;-48
2020/12/10 03:44:08;;;;;;;13.17;7.87;;;2.40;99.90;;;;;;5071125;28;20519;-48
2020/12/10 03:46:34;;;;;;;13.17;8.50;;;2.40;99.90;;;;;;5071522;28;20439;-48
2020/12/10 03:49:01;;;;;;;10.60;7.80;;;2.40;99.90;;;;;;5071001;28;20454;-48
2020/12/10 03:51:28;;;;;;;13.40;7.90;;;2.50;99.90;;;;;;5071188;28;20450;-48
2020/12/10 03:53:58;;;;;;;15.07;8.80;;;2.50;99.90;;;;;;5069900;28;20494;-48
2020/12/10 03:56:25;;;;;;;13.70;7.97;;;2.40;99.90;;;;;;5069838;28;20489;-47
2020/12/10 03:58:52;;;;;;;13.77;7.90;;;2.40;99.90;;;;;;5060437;28;20962;-48
2020/12/10 04:01:19;;;;;;;15.40;9.07;;;2.50;99.90;;;;;;5049744;28;20444;-47
2020/12/10 04:03:45;;;;;;;15.33;8.37;;;2.40;99.90;;;;;;5059691;28;20458;-47
2020/12/10 04:06:13;;;;;;;13.23;7.70;;;2.30;99.90;;;;;;5067961;28;20963;-48
2020/12/10 04:08:39;;;;;;;15.37;8.10;;;2.30;99.90;;;;;;5059565;28;20504;-48
2020/12/10 04:11:06;;;;;;;15.17;8.70;;;2.20;99.90;;;;;;5067470;28;20449;-48
2020/12/10 04:13:32;;;;;;;16.80;8.90;;;2.10;99.90;;;;;;5067696;28;20900;-47
2020/12/10 04:16:01;;;;;;;14.93;7.43;;;2.10;99.90;;;;;;5067375;28;20454;-48
2020/12/10 04:18:27;;;;;;;12.97;7.40;;;2.20;99.90;;;;;;5067372;28;20915;-48
2020/12/10 04:20:54;;;;;;;13.90;8.33;;;2.30;99.90;;;;;;5067845;28;20508;-48
2020/12/10 04:23:22;;;;;;;13.30;7.93;;;2.30;99.90;;;;;;5068655;28;20462;-48
2020/12/10 04:25:51;;;;;;;12.40;8.37;;;2.20;99.90;;;;;;5067616;28;20496;-48
2020/12/10 04:28:18;;;;;;;14.00;8.27;;;2.30;99.90;;;;;;5066573;28;20576;-48
2020/12/10 04:30:44;;;;;;;13.40;8.27;;;2.30;99.90;;;;;;5066984;28;20451;-48
2020/12/10 04:33:14;;;;;;;13.47;7.67;;;2.40;99.90;;;;;;5068113;28;20498;-47
2020/12/10 04:35:41;;;;;;;15.43;8.63;;;2.40;99.90;;;;;;5065803;28;20948;-48
2020/12/10 04:38:08;;;;;;;14.87;9.23;;;2.40;99.90;;;;;;5055055;28;20447;-47
2020/12/10 04:40:36;;;;;;;14.20;9.10;;;2.30;99.90;;;;;;5067161;28;20453;-47
2020/12/10 04:43:03;;;;;;;12.90;8.10;;;2.30;99.90;;;;;;5070770;28;20453;-47
2020/12/10 04:45:29;;;;;;;15.40;8.80;;;2.30;99.90;;;;;;5052065;28;20535;-47
2020/12/10 04:47:56;;;;;;;13.60;8.23;;;2.40;99.90;;;;;;5067879;28;20492;-47
2020/12/10 04:50:24;;;;;;;17.77;8.77;;;2.40;99.90;;;;;;5066836;28;20513;-48
2020/12/10 04:52:52;;;;;;;15.10;8.23;;;2.40;99.90;;;;;;5031919;28;630470;-48
2020/12/10 04:55:20;;;;;;;13.70;9.37;;;2.30;99.90;;;;;;5049769;28;20585;-47
2020/12/10 04:57:47;;;;;;;14.63;8.90;;;2.30;99.90;;;;;;5049763;28;20959;-48
2020/12/10 05:00:16;;;;;;;17.87;10.60;;;2.20;99.90;;;;;;5052218;28;20447;-47
2020/12/10 05:02:45;;;;;;;17.37;10.20;;;2.20;99.90;;;;;;5049584;28;20796;-47
2020/12/10 05:05:22;;;;;;;18.20;10.20;;;2.10;99.90;;;;;;5062422;28;20450;-46
2020/12/10 05:07:48;;;;;;;16.90;10.10;;;2.20;99.90;;;;;;5067767;28;21375;-47
2020/12/10 05:10:16;;;;;;;17.87;10.40;;;2.20;99.90;;;;;;5065387;28;20445;-46
2020/12/10 05:12:44;;;;;;;16.20;9.53;;;2.30;99.90;;;;;;5054930;28;20496;-47
2020/12/10 05:15:11;;;;;;;17.13;9.67;;;2.20;99.90;;;;;;5064899;28;20434;-48
2020/12/10 05:17:38;;;;;;;17.00;10.37;;;2.20;99.90;;;;;;5057057;28;21153;-47
2020/12/10 05:20:06;;;;;;;18.30;10.60;;;2.20;99.90;;;;;;5049645;28;20438;-47
2020/12/10 05:22:34;;;;;;;16.17;9.80;;;2.10;99.90;;;;;;5049604;28;20449;-46
2020/12/10 05:25:02;;;;;;;16.33;9.57;;;2.20;99.90;;;;;;5053185;28;20740;-47
2020/12/10 05:27:29;;;;;;;14.40;8.87;;;2.20;99.90;;;;;;5058468;28;20447;-47
2020/12/10 05:29:56;;;;;;;14.30;8.27;;;2.20;99.90;;;;;;5053446;28;20452;-47
2020/12/10 05:32:31;;;;;;;16.70;9.40;;;2.30;99.90;;;;;;5059690;28;20442;-47
2020/12/10 05:34:57;;;;;;;15.37;8.83;;;2.20;99.90;;;;;;5071917;28;20484;-47
2020/12/10 05:37:28;;;;;;;15.03;8.70;;;2.30;99.90;;;;;;5072006;28;20932;-47
2020/12/10 05:40:00;;;;;;;11.97;7.80;;;2.20;99.90;;;;;;5071655;28;20438;-47
2020/12/10 05:42:35;;;;;;;15.03;8.43;;;2.30;99.90;;;;;;5063399;28;20868;-47
2020/12/10 05:45:12;;;;;;;15.03;9.50;;;2.30;99.90;;;;;;5065014;28;20452;-47
2020/12/10 05:47:46;;;;;;;14.93;9.60;;;2.30;99.90;;;;;;5053170;28;20439;-47
2020/12/10 05:50:13;;;;;;;15.43;9.00;;;2.20;99.90;;;;;;5066333;28;20438;-47
2020/12/10 05:52:46;;;;;;;15.13;9.50;;;2.30;99.90;;;;;;5071794;28;20447;-47
2020/12/10 05:55:12;;;;;;;17.97;10.83;;;2.30;99.90;;;;;;5057039;28;20499;-47
2020/12/10 05:57:42;;;;;;;15.63;9.70;;;2.40;99.90;;;;;;5057354;28;20520;-48
2020/12/10 06:00:09;;;;;;;16.77;11.00;;;2.40;99.90;;;;;;5061989;28;20467;-47
2020/12/10 06:02:36;;;;;;;20.80;10.47;;;2.40;99.90;;;;;;5071297;28;20480;-47
2020/12/10 06:05:04;;;;;;;16.57;9.77;;;2.40;99.90;;;;;;5055647;28;20435;-47
2020/12/10 06:07:30;;;;;;;20.20;11.03;;;2.40;99.90;;;;;;5053040;28;20478;-47
2020/12/10 06:09:59;;;;;;;18.73;10.73;;;2.40;99.90;;;;;;5052440;28;20447;-48
2020/12/10 06:12:25;;;;;;;19.40;11.20;;;2.40;99.90;;;;;;5052721;28;20446;-48
2020/12/10 06:14:56;;;;;;;18.77;10.77;;;2.40;99.90;;;;;;5052649;28;20475;-48
2020/12/10 06:17:23;;;;;;;17.90;10.20;;;2.40;99.90;;;;;;5052866;28;20448;-47
2020/12/10 06:19:49;;;;;;;19.20;11.03;;;2.40;99.90;;;;;;5058518;28;20455;-47
2020/12/10 06:22:30;;;;;;;20.33;12.30;;;2.40;99.90;;;;;;5071523;28;20471;-48
2020/12/10 06:24:57;;;;;;;23.30;12.57;;;2.30;99.90;;;;;;5071352;28;20469;-47
2020/12/10 06:27:29;;;;;;;24.40;12.83;;;2.40;99.90;;;;;;5070403;28;20878;-47
2020/12/10 06:30:12;;;;;;;23.50;11.80;;;2.40;99.90;;;;;;5071059;28;20431;-47
2020/12/10 06:32:43;;;;;;;21.63;12.20;;;2.50;99.90;;;;;;5057535;28;20462;-47
2020/12/10 06:35:28;;;;;;;22.67;11.67;;;2.50;99.90;;;;;;5070604;28;20434;-47
2020/12/10 06:37:56;;;;;;;22.67;12.30;;;2.50;99.90;;;;;;5070692;28;20507;-48
2020/12/10 06:40:31;;;;;;;20.13;11.30;;;2.40;99.90;;;;;;5070660;28;20538;-47
2020/12/10 06:42:57;;;;;;;18.03;10.47;;;2.40;99.90;;;;;;5052075;28;20498;-47
2020/12/10 06:45:31;;;;;;;19.97;11.47;;;2.40;99.90;;;;;;5053651;28;20439;-48
2020/12/10 06:47:58;;;;;;;22.00;12.40;;;2.60;99.90;;;;;;5070807;28;20447;-48
2020/12/10 06:50:26;;;;;;;25.10;13.50;;;2.50;99.90;;;;;;5070545;28;20443;-48
2020/12/10 06:53:16;;;;;;;26.93;13.73;;;2.40;99.90;;;;;;5065750;28;20524;-48
2020/12/10 06:56:08;;;;;;;23.87;13.00;;;2.50;99.90;;;;;;5070534;28;20435;-47
2020/12/10 06:58:56;;;;;;;21.33;12.40;;;2.30;99.90;;;;;;5070754;28;20439;-48
2020/12/10 07:01:35;;;;;;;20.90;12.33;;;2.20;99.90;;;;;;5070367;28;20435;-48
2020/12/10 07:04:22;;;;;;;22.50;12.20;;;2.30;99.90;;;;;;5070062;28;20998;-48
2020/12/10 07:07:12;;;;;;;23.90;12.33;;;2.30;99.90;;;;;;5051656;28;20961;-48
2020/12/10 07:09:51;;;;;;;28.47;13.63;;;2.40;99.90;;;;;;5051406;28;20930;-48
2020/12/10 07:12:22;;;;;;;26.43;14.13;;;2.30;99.90;;;;;;5051805;28;20444;-48
2020/12/10 07:14:50;;;;;;;25.57;13.13;;;2.30;99.90;;;;;;5051395;28;20494;-48
2020/12/10 07:17:17;;;;;;;26.17;13.90;;;2.40;99.90;;;;;;5051417;28;20440;-47
2020/12/10 07:19:43;;;;;;;24.40;13.30;;;2.30;99.90;;;;;;5051116;28;20501;-48
2020/12/10 07:22:10;;;;;;;27.20;13.93;;;2.10;99.90;;;;;;5051328;28;20444;-47
2020/12/10 07:24:36;;;;;;;33.67;14.37;;;2.00;99.90;;;;;;5051277;28;20459;-48
2020/12/10 07:27:04;;;;;;;23.67;13.93;;;2.10;99.90;;;;;;5051334;28;21060;-47
2020/12/10 07:29:30;;;;;;;28.30;14.43;;;2.00;99.90;;;;;;5050931;28;20436;-48
2020/12/10 07:31:57;;;;;;;32.37;15.30;;;2.20;99.90;;;;;;5051202;28;20660;-48
2020/12/10 07:34:23;;;;;;;27.47;13.60;;;2.30;99.90;;;;;;5050913;28;21248;-48
2020/12/10 07:36:52;;;;;;;24.53;11.93;;;2.30;99.90;;;;;;5051123;28;20937;-48
2020/12/10 07:39:29;;;;;;;24.07;12.30;;;2.20;99.90;;;;;;5050896;28;20829;-48
2020/12/10 07:41:55;;;;;;;23.13;12.13;;;2.20;99.90;;;;;;5050919;28;20933;-47
2020/12/10 07:44:28;;;;;;;26.67;14.50;;;2.30;99.90;;;;;;5062543;28;20499;-48
2020/12/10 07:46:54;;;;;;;27.50;15.43;;;2.40;99.90;;;;;;5054545;28;20439;-47
2020/12/10 07:49:28;;;;;;;23.13;13.53;;;2.30;99.90;;;;;;5050606;28;20949;-48
2020/12/10 07:52:03;;;;;;;25.47;13.70;;;2.40;99.90;;;;;;5057296;28;20438;-47
2020/12/10 07:54:44;;;;;;;26.67;13.73;;;2.30;99.90;;;;;;5069063;28;20539;-48
2020/12/10 07:57:29;;;;;;;24.70;13.37;;;2.50;99.90;;;;;;5069291;28;20475;-48
2020/12/10 08:00:04;;;;;;;23.23;12.10;;;2.60;99.90;;;;;;5069063;28;22263;-48
2020/12/10 08:02:52;;;;;;;21.90;11.57;;;2.80;99.90;;;;;;5069137;28;20941;-48
2020/12/10 08:05:20;;;;;;;23.73;11.27;;;2.80;99.90;;;;;;5069241;28;21054;-48
2020/12/10 08:07:48;;;;;;;21.77;10.73;;;2.90;99.90;;;;;;5069445;28;20446;-48
2020/12/10 08:10:24;;;;;;;21.13;12.30;;;3.10;99.90;;;;;;5069201;28;20439;-48
2020/12/10 08:13:14;;;;;;;21.77;11.80;;;3.10;99.90;;;;;;5069134;28;21066;-47
2020/12/10 08:15:43;;;;;;;20.83;10.57;;;3.20;99.90;;;;;;5068901;28;20439;-48
2020/12/10 08:18:11;;;;;;;21.83;12.20;;;3.30;99.90;;;;;;5069048;28;20443;-48
2020/12/10 08:20:42;;;;;;;23.10;12.00;;;3.40;99.90;;;;;;5054339;28;20490;-47
2020/12/10 08:23:09;;;;;;;23.00;12.13;;;3.50;99.90;;;;;;5050184;28;21082;-47
2020/12/10 08:25:36;;;;;;;21.77;12.30;;;3.30;99.90;;;;;;5050404;28;20455;-48
2020/12/10 08:28:05;;;;;;;23.07;12.27;;;3.30;99.90;;;;;;5050256;28;20455;-48
2020/12/10 08:30:31;;;;;;;33.03;13.27;;;3.50;99.90;;;;;;5049821;28;20440;-47
2020/12/10 08:32:59;;;;;;;23.43;11.90;;;3.60;99.90;;;;;;5050258;28;20524;-48
2020/12/10 08:35:26;;;;;;;22.53;11.60;;;3.30;99.90;;;;;;5050261;28;20443;-48
2020/12/10 08:37:53;;;;;;;25.20;12.47;;;3.50;99.90;;;;;;5050182;28;20871;-48
2020/12/10 08:40:25;;;;;;;25.70;11.70;;;3.60;99.90;;;;;;5049827;28;20444;-47
2020/12/10 08:42:52;;;;;;;25.17;11.37;;;3.60;99.90;;;;;;5049866;28;20468;-48
2020/12/10 08:45:32;;;;;;;18.67;10.03;;;3.80;99.90;;;;;;5049921;28;20439;-48
2020/12/10 08:48:01;;;;;;;17.20;9.20;;;3.70;99.90;;;;;;5049886;28;20808;-48
2020/12/10 08:50:28;;;;;;;16.83;9.07;;;3.80;99.90;;;;;;5049835;28;20431;-48
2020/12/10 08:53:06;;;;;;;17.73;9.20;;;3.90;99.90;;;;;;5064156;28;20881;-47
2020/12/10 08:55:38;;;;;;;18.57;9.13;;;4.00;99.90;;;;;;5067600;28;20442;-48
2020/12/10 08:58:05;;;;;;;20.73;11.13;;;4.20;99.90;;;;;;5083925;22;20644;-52
2020/12/10 09:00:35;;;;;;;26.10;13.23;;;4.30;99.90;;;;;;5064322;28;20497;-51
2020/12/10 09:03:03;;;;;;;20.53;11.87;;;4.30;99.90;;;;;;5070425;28;20516;-53
2020/12/10 09:05:29;;;;;;;17.77;9.43;;;4.50;99.90;;;;;;5060630;28;20444;-52
2020/12/10 09:07:56;;;;;;;14.07;8.70;;;4.10;99.90;;;;;;5059615;28;20464;-51
2020/12/10 09:10:26;;;;;;;15.60;8.17;;;4.00;99.90;;;;;;5070404;28;20466;-52
2020/12/10 09:12:53;;;;;;;13.93;7.80;;;4.10;99.90;;;;;;5070581;28;20453;-51
2020/12/10 09:15:20;;;;;;;15.23;7.57;;;4.40;99.90;;;;;;5070317;28;20540;-51
2020/12/10 09:17:47;;;;;;;11.50;7.63;;;4.60;99.90;;;;;;5070265;28;20979;-51
2020/12/10 09:20:14;;;;;;;15.80;7.30;;;4.80;99.90;;;;;;5051022;28;20498;-51
2020/12/10 09:22:41;;;;;;;13.00;7.70;;;4.90;99.90;;;;;;5050453;28;20494;-51
2020/12/10 09:25:07;;;;;;;14.80;7.80;;;4.70;99.90;;;;;;5050316;28;20496;-52
2020/12/10 09:27:34;;;;;;;17.43;7.77;;;4.80;99.90;;;;;;5049879;28;20464;-51
2020/12/10 09:30:01;;;;;;;14.07;8.00;;;4.70;99.90;;;;;;5049928;28;20435;-52
2020/12/10 09:32:33;;;;;;;15.10;8.50;;;4.40;99.90;;;;;;5050029;28;20947;-52
2020/12/10 09:34:59;;;;;;;13.37;7.40;;;4.40;99.90;;;;;;5050020;28;20490;-51
2020/12/10 09:37:27;;;;;;;12.93;7.47;;;4.30;99.90;;;;;;5050347;28;20874;-51
2020/12/10 09:39:53;;;;;;;14.90;8.43;;;4.20;99.90;;;;;;5050017;28;20497;-52
2020/12/10 09:42:20;;;;;;;12.13;7.50;;;3.90;99.90;;;;;;5050065;28;20448;-51
2020/12/10 09:44:46;;;;;;;12.23;7.10;;;4.00;99.90;;;;;;5050044;28;20508;-52
2020/12/10 09:47:13;;;;;;;12.00;7.43;;;4.10;99.90;;;;;;5049867;28;20506;-52
2020/12/10 09:49:39;;;;;;;14.90;7.70;;;4.20;99.90;;;;;;5068647;28;20833;-52
2020/12/10 09:52:07;;;;;;;11.23;7.10;;;4.50;99.90;;;;;;5070079;28;20447;-53
2020/12/10 09:57:29;;;;;;;10.90;7.17;;;5.30;99.90;;;;;;5064187;28;20981;-53
2020/12/10 09:59:56;;;;;;;11.13;7.23;;;5.80;99.90;;;;;;5069051;28;20447;-51
2020/12/10 10:02:22;;;;;;;20.43;11.17;;;5.90;99.90;;;;;;5068738;28;20440;-52
2020/12/10 10:04:49;;;;;;;21.67;12.10;;;5.80;99.90;;;;;;5086378;28;20435;-52
2020/12/10 10:07:16;;;;;;;23.40;12.80;;;5.70;99.90;;;;;;5069616;28;20477;-52
2020/12/10 10:09:44;;;;;;;21.97;13.20;;;5.80;99.90;;;;;;5070235;28;20443;-52
2020/12/10 10:12:11;;;;;;;21.30;12.40;;;5.90;99.90;;;;;;5071935;28;20446;-52
2020/12/10 10:14:38;;;;;;;22.00;12.97;;;6.10;99.90;;;;;;5072108;28;20540;-52
2020/12/10 10:17:06;;;;;;;20.27;12.10;;;6.50;99.90;;;;;;5072135;28;20451;-52
2020/12/10 10:19:32;;;;;;;19.37;11.33;;;6.90;99.90;;;;;;5071906;28;20439;-52
2020/12/10 10:21:59;;;;;;;22.67;12.87;;;7.10;99.90;;;;;;5072026;28;20458;-52
2020/12/10 10:24:26;;;;;;;18.83;11.33;;;7.10;99.90;;;;;;5072026;28;20443;-52
2020/12/10 10:26:54;;;;;;;17.60;11.40;;;7.30;99.90;;;;;;5071810;28;20439;-52
2020/12/10 10:29:21;;;;;;;16.90;10.37;;;7.50;99.90;;;;;;5071495;28;20471;-51
2020/12/10 10:31:49;;;;;;;20.60;11.57;;;7.40;99.90;;;;;;5072191;28;20454;-52
2020/12/10 10:34:16;;;;;;;16.80;10.47;;;7.30;99.90;;;;;;5072111;28;20487;-51
2020/12/10 10:36:43;;;;;;;15.30;9.27;;;7.40;99.90;;;;;;5072054;28;20453;-51
2020/12/10 10:39:10;;;;;;;16.87;10.30;;;6.90;99.90;;;;;;5071967;28;20498;-52
2020/12/10 10:41:46;;;;;;;15.57;10.07;;;6.80;99.90;;;;;;5071800;28;20443;-52
2020/12/10 10:44:14;;;;;;;14.47;9.50;;;6.80;99.90;;;;;;5072764;28;20446;-53
2020/12/10 10:46:41;;;;;;;16.77;10.50;;;6.90;99.90;;;;;;5082813;28;20442;-52
2020/12/10 10:49:08;;;;;;;14.80;9.47;;;6.70;99.90;;;;;;5071174;28;20475;-52
2020/12/10 10:51:35;;;;;;;18.23;11.67;;;6.50;99.90;;;;;;5071325;28;20940;-52
2020/12/10 10:54:02;;;;;;;16.27;10.90;;;6.20;99.90;;;;;;5068130;28;20479;-51
2020/12/10 10:56:28;;;;;;;21.13;12.17;;;6.00;99.90;;;;;;5051614;28;20451;-51
2020/12/10 10:58:55;;;;;;;19.47;11.63;;;6.20;99.90;;;;;;5050999;28;20475;-51
2020/12/10 11:01:26;;;;;;;17.33;10.83;;;6.30;99.90;;;;;;5051287;28;20451;-51
2020/12/10 11:03:57;;;;;;;16.73;10.30;;;6.30;99.90;;;;;;5051140;28;20440;-51
2020/12/10 11:06:23;;;;;;;18.80;10.80;;;6.20;99.90;;;;;;5051045;28;20448;-52
2020/12/10 11:08:50;;;;;;;19.13;11.47;;;6.20;99.90;;;;;;5050682;28;20471;-52
2020/12/10 11:11:20;;;;;;;17.33;10.63;;;6.30;99.90;;;;;;5051082;28;20445;-51
2020/12/10 11:13:46;;;;;;;17.03;10.27;;;6.30;99.90;;;;;;5050956;28;20483;-52
2020/12/10 11:16:13;;;;;;;19.73;11.77;;;6.50;99.90;;;;;;5051077;28;20451;-53
2020/12/10 11:18:40;;;;;;;15.63;10.43;;;6.40;99.90;;;;;;5050741;28;20908;-52
2020/12/10 11:21:07;;;;;;;17.03;10.07;;;6.50;99.90;;;;;;5061558;28;20823;-52
2020/12/10 11:23:34;;;;;;;16.87;10.00;;;6.40;99.90;;;;;;5072035;28;20444;-53
2020/12/10 11:26:01;;;;;;;16.30;10.60;;;6.30;99.90;;;;;;5071151;28;20510;-52
2020/12/10 11:28:28;;;;;;;18.30;10.20;;;5.90;99.90;;;;;;5071206;28;20873;-52
2020/12/10 11:30:55;;;;;;;18.00;10.67;;;6.00;99.90;;;;;;5070926;28;20456;-53
2020/12/10 11:33:22;;;;;;;18.83;11.10;;;5.90;99.90;;;;;;5071192;28;20457;-52
2020/12/10 11:35:49;;;;;;;17.30;10.53;;;6.10;99.90;;;;;;5071219;28;20443;-52
2020/12/10 11:38:15;;;;;;;17.93;10.07;;;6.10;99.90;;;;;;5070318;28;20477;-52
2020/12/10 11:40:42;;;;;;;15.97;9.97;;;6.40;99.90;;;;;;5071262;28;20446;-52
2020/12/10 11:43:08;;;;;;;14.17;10.00;;;6.40;99.90;;;;;;5071175;28;20512;-52
2020/12/10 11:45:37;;;;;;;17.23;10.97;;;6.20;99.90;;;;;;5071289;28;20450;-53
2020/12/10 11:48:04;;;;;;;14.53;10.30;;;6.10;99.90;;;;;;5070550;28;20996;-52
2020/12/10 11:50:31;;;;;;;16.27;10.63;;;6.20;99.90;;;;;;5057275;28;20450;-52
2020/12/10 11:52:59;;;;;;;16.63;11.02;;;6.30;99.90;;;;;;5070217;28;20446;-52
2020/12/10 11:55:25;;;;;;;16.50;10.47;;;6.30;99.90;;;;;;5070041;28;20229;-52
2020/12/10 11:57:53;;;;;;;16.40;10.00;;;6.30;99.90;;;;;;5070825;28;20483;-52
2020/12/10 12:00:20;;;;;;;15.17;9.90;;;6.20;99.90;;;;;;5069610;28;20447;-51
2020/12/10 12:02:47;;;;;;;15.47;9.63;;;6.10;99.90;;;;;;5062294;28;20456;-52
2020/12/10 12:05:14;;;;;;;15.57;9.63;;;6.10;99.90;;;;;;5068432;28;20821;-51
2020/12/10 12:07:44;;;;;;;15.97;10.00;;;6.20;99.90;;;;;;5054917;28;20469;-52
2020/12/10 12:10:11;;;;;;;16.07;9.90;;;6.00;99.90;;;;;;5049937;28;20461;-52
2020/12/10 12:12:38;;;;;;;14.07;9.27;;;5.90;99.90;;;;;;5055679;28;20446;-52
2020/12/10 12:15:05;;;;;;;15.57;9.73;;;5.90;99.90;;;;;;5060353;28;20484;-52
2020/12/10 12:17:33;;;;;;;15.13;9.77;;;5.80;99.90;;;;;;5050680;28;20965;-52
2020/12/10 12:20:00;;;;;;;15.90;9.50;;;5.80;99.90;;;;;;5068949;28;20451;-52
2020/12/10 12:22:27;;;;;;;14.20;9.03;;;5.80;99.90;;;;;;5070678;28;20494;-52
2020/12/10 12:24:53;;;;;;;16.10;9.60;;;5.60;99.90;;;;;;5070333;28;20455;-52
2020/12/10 12:27:20;;;;;;;11.03;7.40;;;5.50;99.90;;;;;;5063010;28;20476;-52
2020/12/10 12:29:47;;;;;;;11.90;8.07;;;5.30;99.90;;;;;;5064693;28;20443;-52
2020/12/10 12:32:14;;;;;;;13.60;8.63;;;5.30;99.90;;;;;;5066701;28;20497;-52
2020/12/10 12:34:40;;;;;;;13.87;8.73;;;5.30;99.90;;;;;;5050702;28;20479;-53
2020/12/10 12:37:07;;;;;;;13.53;8.40;;;5.40;99.90;;;;;;5050471;28;20448;-52
2020/12/10 12:39:34;;;;;;;14.63;9.20;;;5.40;99.90;;;;;;5050177;28;20443;-52
2020/12/10 12:42:04;;;;;;;13.20;8.17;;;5.30;99.90;;;;;;5064292;28;20547;-52
2020/12/10 12:44:32;;;;;;;15.37;8.93;;;5.30;99.90;;;;;;5050268;28;20440;-52
2020/12/10 12:46:59;;;;;;;15.50;9.37;;;5.00;99.90;;;;;;5054717;28;20504;-52
2020/12/10 12:49:25;;;;;;;14.43;9.33;;;5.10;99.90;;;;;;5068290;28;20445;-52
2020/12/10 12:51:52;;;;;;;11.33;8.30;;;5.20;99.90;;;;;;5068480;28;20446;-52